This is the latest recevied weather packets stored in our database for station/object N7BTW-13. If no packets are shown the sender has not sent any weather packets the latest 10 day(s).
| Time | Temp. | Humidity | Pressure | Rain* | Wind** | Luminosity | Snow |
|---|---|---|---|---|---|---|---|
| 1787370009 | 22.78° C | 68% | - | 0 mm | - | - | - |
| 1787369407 | 23.33° C | 66% | - | 0 mm | - | - | - |
| 1787368809 | 23.89° C | 64% | - | 0 mm | - | - | - |
| 1787368207 | 25° C | 61% | - | 0 mm | - | - | - |
| 1787367608 | 25.56° C | 59% | - | 0 mm | - | - | - |
| 1787367008 | 27.22° C | 55% | - | 0 mm | - | - | - |
| 1787366407 | 28.33° C | 52% | - | 0 mm | - | - | - |
| 1787365807 | 27.22° C | 55% | - | 0 mm | - | - | - |
| 1787365209 | 27.22° C | 54% | - | 0 mm | - | - | - |
| 1787364607 | 28.33° C | 52% | - | 0 mm | - | - | - |
| 1787364008 | 28.33° C | 53% | - | 0 mm | - | - | - |
| 1787363405 | 28.33° C | 52% | - | 0 mm | - | - | - |
| 1787362808 | 28.33° C | 52% | - | 0 mm | - | - | - |
| 1787362208 | 27.78° C | 54% | - | 0 mm | - | - | - |
| 1787361607 | 28.33° C | 52% | - | 0 mm | - | - | - |
| 1787361008 | 28.89° C | 52% | - | 0 mm | - | - | - |
| 1787360407 | 28.89° C | 52% | - | 0 mm | - | - | - |
| 1787359807 | 28.33° C | 53% | - | 0 mm | - | - | - |
| 1787359210 | 28.89° C | 51% | - | 0 mm | - | - | - |
| 1787358608 | 28.89° C | 51% | - | 0 mm | - | - | - |
| 1787358006 | 28.89° C | 52% | - | 0 mm | - | - | - |
| 1787357407 | 28.89° C | 52% | - | 0 mm | - | - | - |
| 1787356806 | 28.33° C | 53% | - | 0 mm | - | - | - |
* Rain latest hour (hover to see other rain measurements)
** Current wind speed in m/s (hover to see current wind gust speed)